PWSweather.com
Personal Weather Stations
Station Observations
METEOBREDA
City, BredaNL 4824KH

CityBredaNL 4824KH

Lat: 51.6128536, Lon: 4.7426793

Elevation: 7

Station Type: WS4000(WH1080)

http://www.meteobreda.nl

High Low Average
Temperature 75.9°F24.4°C 54.9°F12.7°C 65.2°F18.4°C
Dew Point 63.8°F17.7°C 53.6°F12.0°C 58.8°F14.9°C
Winds 5.4 mph 8.7 kmh Calm Calm 1.0 mph W1.6 kmh W
Wind Gusts 13.0 mph20.9 kmh -- 5.0 mph8.0 kmh
Humidity 97% 59% 81%
Pressure 29.63 in1003.4 mb 29.52 in999.7 mb -
Precipitation 0.01 in0.3 mm - -
Hour Temp Dew Point Humidity Winds Wind Gusts Pressure Precip Precip Rate Daily Precip Total
12:00 AM 60.4°F15.8°C 57.5°F14.2°C 90% Calm Calm 0.7 mph1.1 kmh 29.63 in1003.4 mb 0.00 in0.0 mm 0.00 in/hr0.0 mm/hr 0.00 in0.0 mm
12:05 AM 60.4°F15.8°C 57.5°F14.2°C 90% Calm Calm 0.7 mph1.1 kmh 29.62 in1003.0 mb 0.00 in0.0 mm 0.00 in/hr0.0 mm/hr 0.00 in0.0 mm
12:10 AM 59.9°F15.5°C 57.0°F13.9°C 90% Calm Calm 0.7 mph1.1 kmh 29.62 in1003.0 mb 0.00 in0.0 mm 0.00 in/hr0.0 mm/hr 0.00 in0.0 mm
12:15 AM 59.7°F15.4°C 57.1°F13.9°C 91% Calm Calm 1.6 mph2.6 kmh 29.62 in1003.0 mb 0.00 in0.0 mm 0.00 in/hr0.0 mm/hr 0.00 in0.0 mm
12:20 AM 59.7°F15.4°C 57.1°F13.9°C 91% Calm Calm 1.6 mph2.6 kmh 29.62 in1003.0 mb 0.00 in0.0 mm 0.00 in/hr0.0 mm/hr 0.00 in0.0 mm
12:25 AM 59.5°F15.3°C 56.9°F13.8°C 91% Calm Calm 1.6 mph2.6 kmh 29.63 in1003.4 mb 0.00 in0.0 mm 0.00 in/hr0.0 mm/hr 0.00 in0.0 mm
12:30 AM 59.5°F15.3°C 56.9°F13.8°C 91% Calm Calm -- 29.63 in1003.4 mb 0.00 in0.0 mm 0.00 in/hr0.0 mm/hr 0.00 in0.0 mm
12:35 AM 59.4°F15.2°C 56.7°F13.7°C 91% Calm Calm -- 29.63 in1003.4 mb 0.00 in0.0 mm 0.00 in/hr0.0 mm/hr 0.00 in0.0 mm
12:45 AM 59.2°F15.1°C 56.6°F13.7°C 91% Calm Calm 0.7 mph1.1 kmh 29.63 in1003.4 mb 0.00 in0.0 mm 0.00 in/hr0.0 mm/hr 0.00 in0.0 mm
12:50 AM 59.0°F15.0°C 56.7°F13.7°C 92% Calm Calm 0.7 mph1.1 kmh 29.63 in1003.4 mb 0.00 in0.0 mm 0.00 in/hr0.0 mm/hr 0.00 in0.0 mm
12:55 AM 58.8°F14.9°C 56.5°F13.6°C 92% Calm Calm -- 29.63 in1003.4 mb 0.00 in0.0 mm 0.00 in/hr0.0 mm/hr 0.00 in0.0 mm
01:00 AM 58.8°F14.9°C 56.5°F13.6°C 92% Calm Calm -- 29.63 in1003.4 mb 0.00 in0.0 mm 0.00 in/hr0.0 mm/hr 0.00 in0.0 mm
01:05 AM 58.8°F14.9°C 56.5°F13.6°C 92% Calm Calm -- 29.62 in1003.0 mb 0.00 in0.0 mm 0.00 in/hr0.0 mm/hr 0.00 in0.0 mm
01:10 AM 58.5°F14.7°C 56.2°F13.4°C 92% Calm Calm 0.7 mph1.1 kmh 29.62 in1003.0 mb 0.00 in0.0 mm 0.00 in/hr0.0 mm/hr 0.00 in0.0 mm
01:15 AM 58.3°F14.6°C 56.0°F13.3°C 92% Calm Calm 0.7 mph1.1 kmh 29.62 in1003.0 mb 0.00 in0.0 mm 0.00 in/hr0.0 mm/hr 0.00 in0.0 mm
01:20 AM 58.1°F14.5°C 55.8°F13.2°C 92% Calm Calm -- 29.62 in1003.0 mb 0.00 in0.0 mm 0.00 in/hr0.0 mm/hr 0.00 in0.0 mm
01:25 AM 58.1°F14.5°C 55.8°F13.2°C 92% Calm Calm -- 29.62 in1003.0 mb 0.00 in0.0 mm 0.00 in/hr0.0 mm/hr 0.00 in0.0 mm
01:30 AM 57.9°F14.4°C 55.9°F13.3°C 93% Calm Calm -- 29.62 in1003.0 mb 0.00 in0.0 mm 0.00 in/hr0.0 mm/hr 0.00 in0.0 mm
01:35 AM 57.9°F14.4°C 55.9°F13.3°C 93% Calm Calm 1.6 mph2.6 kmh 29.61 in1002.7 mb 0.00 in0.0 mm 0.00 in/hr0.0 mm/hr 0.00 in0.0 mm
01:40 AM 57.7°F14.3°C 55.7°F13.2°C 93% Calm Calm 1.6 mph2.6 kmh 29.62 in1003.0 mb 0.00 in0.0 mm 0.00 in/hr0.0 mm/hr 0.00 in0.0 mm
01:45 AM 57.7°F14.3°C 55.7°F13.2°C 93% Calm Calm 1.6 mph2.6 kmh 29.61 in1002.7 mb 0.00 in0.0 mm 0.00 in/hr0.0 mm/hr 0.00 in0.0 mm
01:50 AM 57.6°F14.2°C 55.6°F13.1°C 93% Calm Calm 2.2 mph3.5 kmh 29.61 in1002.7 mb 0.00 in0.0 mm 0.00 in/hr0.0 mm/hr 0.00 in0.0 mm
01:55 AM 57.6°F14.2°C 55.6°F13.1°C 93% Calm Calm 2.2 mph3.5 kmh 29.60 in1002.4 mb 0.00 in0.0 mm 0.00 in/hr0.0 mm/hr 0.00 in0.0 mm
02:00 AM 57.6°F14.2°C 55.9°F13.3°C 94% Calm Calm 2.2 mph3.5 kmh 29.60 in1002.4 mb 0.00 in0.0 mm 0.00 in/hr0.0 mm/hr 0.00 in0.0 mm
02:05 AM 57.6°F14.2°C 55.9°F13.3°C 94% Calm Calm 2.2 mph3.5 kmh 29.60 in1002.4 mb 0.00 in0.0 mm 0.00 in/hr0.0 mm/hr 0.00 in0.0 mm
02:10 AM 57.6°F14.2°C 55.9°F13.3°C 94% Calm Calm 1.6 mph2.6 kmh 29.60 in1002.4 mb 0.00 in0.0 mm 0.00 in/hr0.0 mm/hr 0.00 in0.0 mm
02:15 AM 57.4°F14.1°C 55.7°F13.2°C 94% Calm Calm 2.2 mph3.5 kmh 29.60 in1002.4 mb 0.00 in0.0 mm 0.00 in/hr0.0 mm/hr 0.00 in0.0 mm
02:20 AM 57.4°F14.1°C 55.7°F13.2°C 94% Calm Calm 2.2 mph3.5 kmh 29.60 in1002.4 mb 0.00 in0.0 mm 0.00 in/hr0.0 mm/hr 0.00 in0.0 mm
02:25 AM 57.2°F14.0°C 55.5°F13.1°C 94% 1.6 mph NW2.6 kmh NW 3.1 mph5.0 kmh 29.60 in1002.4 mb 0.00 in0.0 mm 0.00 in/hr0.0 mm/hr 0.00 in0.0 mm
02:30 AM 57.2°F14.0°C 55.5°F13.1°C 94% 2.2 mph NW3.5 kmh NW 3.8 mph6.1 kmh 29.60 in1002.4 mb 0.00 in0.0 mm 0.00 in/hr0.0 mm/hr 0.00 in0.0 mm
02:35 AM 57.2°F14.0°C 55.5°F13.1°C 94% 0.7 mph NW1.1 kmh NW 3.8 mph6.1 kmh 29.60 in1002.4 mb 0.00 in0.0 mm 0.00 in/hr0.0 mm/hr 0.00 in0.0 mm
02:40 AM 57.2°F14.0°C 55.5°F13.1°C 94% Calm Calm 3.8 mph6.1 kmh 29.60 in1002.4 mb 0.00 in0.0 mm 0.00 in/hr0.0 mm/hr 0.00 in0.0 mm
02:45 AM 57.2°F14.0°C 55.5°F13.1°C 94% Calm Calm 2.2 mph3.5 kmh 29.60 in1002.4 mb 0.00 in0.0 mm 0.00 in/hr0.0 mm/hr 0.00 in0.0 mm
02:50 AM 57.0°F13.9°C 55.3°F12.9°C 94% Calm Calm 2.2 mph3.5 kmh 29.60 in1002.4 mb 0.00 in0.0 mm 0.00 in/hr0.0 mm/hr 0.00 in0.0 mm
02:55 AM 56.8°F13.8°C 55.1°F12.8°C 94% Calm Calm 1.6 mph2.6 kmh 29.60 in1002.4 mb 0.00 in0.0 mm 0.00 in/hr0.0 mm/hr 0.00 in0.0 mm
03:00 AM 56.8°F13.8°C 55.1°F12.8°C 94% Calm Calm 1.6 mph2.6 kmh 29.60 in1002.4 mb 0.00 in0.0 mm 0.00 in/hr0.0 mm/hr 0.00 in0.0 mm
03:05 AM 56.8°F13.8°C 55.1°F12.8°C 94% Calm Calm 0.7 mph1.1 kmh 29.60 in1002.4 mb 0.00 in0.0 mm 0.00 in/hr0.0 mm/hr 0.00 in0.0 mm
03:10 AM 56.5°F13.6°C 54.8°F12.7°C 94% Calm Calm 0.7 mph1.1 kmh 29.60 in1002.4 mb 0.00 in0.0 mm 0.00 in/hr0.0 mm/hr 0.00 in0.0 mm
03:15 AM 56.5°F13.6°C 55.1°F12.8°C 95% Calm Calm 0.7 mph1.1 kmh 29.60 in1002.4 mb 0.00 in0.0 mm 0.00 in/hr0.0 mm/hr 0.00 in0.0 mm
03:20 AM 56.5°F13.6°C 55.1°F12.8°C 95% Calm Calm 0.7 mph1.1 kmh 29.60 in1002.4 mb 0.00 in0.0 mm 0.00 in/hr0.0 mm/hr 0.00 in0.0 mm
03:25 AM 56.3°F13.5°C 54.9°F12.7°C 95% Calm Calm 1.6 mph2.6 kmh 29.60 in1002.4 mb 0.00 in0.0 mm 0.00 in/hr0.0 mm/hr 0.00 in0.0 mm
03:30 AM 56.5°F13.6°C 55.1°F12.8°C 95% 0.7 mph ENE1.1 kmh ENE 3.1 mph5.0 kmh 29.61 in1002.7 mb 0.00 in0.0 mm 0.00 in/hr0.0 mm/hr 0.00 in0.0 mm
03:35 AM 56.5°F13.6°C 55.1°F12.8°C 95% Calm Calm 3.8 mph6.1 kmh 29.61 in1002.7 mb 0.00 in0.0 mm 0.00 in/hr0.0 mm/hr 0.00 in0.0 mm
03:40 AM 56.5°F13.6°C 55.1°F12.8°C 95% Calm Calm 3.8 mph6.1 kmh 29.61 in1002.7 mb 0.00 in0.0 mm 0.00 in/hr0.0 mm/hr 0.00 in0.0 mm
03:45 AM 56.3°F13.5°C 54.9°F12.7°C 95% Calm Calm 2.2 mph3.5 kmh 29.60 in1002.4 mb 0.00 in0.0 mm 0.00 in/hr0.0 mm/hr 0.00 in0.0 mm
03:50 AM 56.1°F13.4°C 54.7°F12.6°C 95% Calm Calm 1.6 mph2.6 kmh 29.60 in1002.4 mb 0.00 in0.0 mm 0.00 in/hr0.0 mm/hr 0.00 in0.0 mm
03:55 AM 55.9°F13.3°C 54.5°F12.5°C 95% Calm Calm 0.7 mph1.1 kmh 29.60 in1002.4 mb 0.00 in0.0 mm 0.00 in/hr0.0 mm/hr 0.00 in0.0 mm
04:00 AM 55.8°F13.2°C 54.4°F12.4°C 95% Calm Calm 1.6 mph2.6 kmh 29.60 in1002.4 mb 0.00 in0.0 mm 0.00 in/hr0.0 mm/hr 0.00 in0.0 mm
04:05 AM 55.8°F13.2°C 54.4°F12.4°C 95% Calm Calm 1.6 mph2.6 kmh 29.60 in1002.4 mb 0.00 in0.0 mm 0.00 in/hr0.0 mm/hr 0.00 in0.0 mm
04:10 AM 55.6°F13.1°C 54.2°F12.3°C 95% Calm Calm 1.6 mph2.6 kmh 29.60 in1002.4 mb 0.00 in0.0 mm 0.00 in/hr0.0 mm/hr 0.00 in0.0 mm
04:15 AM 55.6°F13.1°C 54.2°F12.3°C 95% Calm Calm 1.6 mph2.6 kmh 29.60 in1002.4 mb 0.00 in0.0 mm 0.00 in/hr0.0 mm/hr 0.00 in0.0 mm
04:20 AM 55.4°F13.0°C 54.0°F12.2°C 95% Calm Calm 1.6 mph2.6 kmh 29.59 in1002.0 mb 0.00 in0.0 mm 0.00 in/hr0.0 mm/hr 0.00 in0.0 mm
04:25 AM 55.2°F12.9°C 53.8°F12.1°C 95% Calm Calm 2.2 mph3.5 kmh 29.58 in1001.7 mb 0.00 in0.0 mm 0.00 in/hr0.0 mm/hr 0.00 in0.0 mm
04:30 AM 55.2°F12.9°C 53.8°F12.1°C 95% Calm Calm 2.2 mph3.5 kmh 29.58 in1001.7 mb 0.00 in0.0 mm 0.00 in/hr0.0 mm/hr 0.00 in0.0 mm
04:35 AM 55.2°F12.9°C 53.8°F12.1°C 95% 0.7 mph NNW1.1 kmh NNW 3.1 mph5.0 kmh 29.59 in1002.0 mb 0.00 in0.0 mm 0.00 in/hr0.0 mm/hr 0.00 in0.0 mm
04:40 AM 55.2°F12.9°C 53.8°F12.1°C 95% Calm Calm 3.1 mph5.0 kmh 29.59 in1002.0 mb 0.00 in0.0 mm 0.00 in/hr0.0 mm/hr 0.00 in0.0 mm
04:45 AM 55.0°F12.8°C 53.6°F12.0°C 95% Calm Calm 2.2 mph3.5 kmh 29.58 in1001.7 mb 0.00 in0.0 mm 0.00 in/hr0.0 mm/hr 0.00 in0.0 mm
04:50 AM 55.0°F12.8°C 53.6°F12.0°C 95% Calm Calm 3.1 mph5.0 kmh 29.58 in1001.7 mb 0.00 in0.0 mm 0.00 in/hr0.0 mm/hr 0.00 in0.0 mm
04:55 AM 55.0°F12.8°C 53.9°F12.2°C 96% Calm Calm 3.1 mph5.0 kmh 29.58 in1001.7 mb 0.00 in0.0 mm 0.00 in/hr0.0 mm/hr 0.00 in0.0 mm
05:00 AM 55.0°F12.8°C 53.6°F12.0°C 95% Calm Calm 1.6 mph2.6 kmh 29.58 in1001.7 mb 0.00 in0.0 mm 0.00 in/hr0.0 mm/hr 0.00 in0.0 mm
05:05 AM 55.0°F12.8°C 53.6°F12.0°C 95% Calm Calm 1.6 mph2.6 kmh 29.58 in1001.7 mb 0.00 in0.0 mm 0.00 in/hr0.0 mm/hr 0.00 in0.0 mm
05:10 AM 54.9°F12.7°C 53.7°F12.1°C 96% Calm Calm 2.2 mph3.5 kmh 29.58 in1001.7 mb 0.00 in0.0 mm 0.00 in/hr0.0 mm/hr 0.00 in0.0 mm
05:15 AM 54.9°F12.7°C 53.7°F12.1°C 96% Calm Calm 2.2 mph3.5 kmh 29.58 in1001.7 mb 0.00 in0.0 mm 0.00 in/hr0.0 mm/hr 0.00 in0.0 mm
05:20 AM 54.9°F12.7°C 53.7°F12.1°C 96% Calm Calm 1.6 mph2.6 kmh 29.59 in1002.0 mb 0.00 in0.0 mm 0.00 in/hr0.0 mm/hr 0.00 in0.0 mm
05:25 AM 54.9°F12.7°C 53.7°F12.1°C 96% Calm Calm 1.6 mph2.6 kmh 29.59 in1002.0 mb 0.00 in0.0 mm 0.00 in/hr0.0 mm/hr 0.00 in0.0 mm
05:30 AM 54.9°F12.7°C 53.7°F12.1°C 96% Calm Calm 2.2 mph3.5 kmh 29.58 in1001.7 mb 0.00 in0.0 mm 0.00 in/hr0.0 mm/hr 0.00 in0.0 mm
05:35 AM 54.9°F12.7°C 53.7°F12.1°C 96% Calm Calm 2.2 mph3.5 kmh 29.58 in1001.7 mb 0.00 in0.0 mm 0.00 in/hr0.0 mm/hr 0.00 in0.0 mm
05:40 AM 55.0°F12.8°C 53.9°F12.2°C 96% Calm Calm 2.2 mph3.5 kmh 29.58 in1001.7 mb 0.00 in0.0 mm 0.00 in/hr0.0 mm/hr 0.00 in0.0 mm
05:45 AM 55.0°F12.8°C 53.9°F12.2°C 96% Calm Calm 1.6 mph2.6 kmh 29.57 in1001.4 mb 0.00 in0.0 mm 0.00 in/hr0.0 mm/hr 0.00 in0.0 mm
05:50 AM 55.4°F13.0°C 54.3°F12.4°C 96% Calm Calm 3.8 mph6.1 kmh 29.58 in1001.7 mb 0.00 in0.0 mm 0.00 in/hr0.0 mm/hr 0.00 in0.0 mm
05:55 AM 55.4°F13.0°C 54.3°F12.4°C 96% Calm Calm 3.8 mph6.1 kmh 29.58 in1001.7 mb 0.00 in0.0 mm 0.00 in/hr0.0 mm/hr 0.00 in0.0 mm
06:00 AM 55.4°F13.0°C 54.6°F12.6°C 97% Calm Calm 3.1 mph5.0 kmh 29.59 in1002.0 mb 0.00 in0.0 mm 0.00 in/hr0.0 mm/hr 0.00 in0.0 mm
06:05 AM 55.4°F13.0°C 54.6°F12.6°C 97% Calm Calm 3.1 mph5.0 kmh 29.59 in1002.0 mb 0.00 in0.0 mm 0.00 in/hr0.0 mm/hr 0.00 in0.0 mm
06:10 AM 55.8°F13.2°C 54.9°F12.7°C 97% 0.7 mph SW1.1 kmh SW 2.2 mph3.5 kmh 29.59 in1002.0 mb 0.00 in0.0 mm 0.00 in/hr0.0 mm/hr 0.00 in0.0 mm
06:15 AM 55.8°F13.2°C 54.9°F12.7°C 97% 0.7 mph WSW1.1 kmh WSW 2.2 mph3.5 kmh 29.59 in1002.0 mb 0.00 in0.0 mm 0.00 in/hr0.0 mm/hr 0.00 in0.0 mm
06:20 AM 55.9°F13.3°C 55.1°F12.8°C 97% Calm Calm 2.2 mph3.5 kmh 29.59 in1002.0 mb 0.00 in0.0 mm 0.00 in/hr0.0 mm/hr 0.00 in0.0 mm
06:25 AM 55.9°F13.3°C 55.1°F12.8°C 97% Calm Calm 2.2 mph3.5 kmh 29.58 in1001.7 mb 0.00 in0.0 mm 0.00 in/hr0.0 mm/hr 0.00 in0.0 mm
06:30 AM 56.1°F13.4°C 55.3°F12.9°C 97% Calm Calm 1.6 mph2.6 kmh 29.58 in1001.7 mb 0.00 in0.0 mm 0.00 in/hr0.0 mm/hr 0.00 in0.0 mm
06:35 AM 56.3°F13.5°C 55.5°F13.1°C 97% Calm Calm 2.2 mph3.5 kmh 29.59 in1002.0 mb 0.00 in0.0 mm 0.00 in/hr0.0 mm/hr 0.00 in0.0 mm
06:40 AM 56.7°F13.7°C 55.8°F13.2°C 97% 1.6 mph WNW2.6 kmh WNW 3.8 mph6.1 kmh 29.58 in1001.7 mb 0.00 in0.0 mm 0.00 in/hr0.0 mm/hr 0.00 in0.0 mm
06:45 AM 56.8°F13.8°C 56.0°F13.3°C 97% Calm Calm 3.8 mph6.1 kmh 29.58 in1001.7 mb 0.00 in0.0 mm 0.00 in/hr0.0 mm/hr 0.00 in0.0 mm
06:50 AM 57.2°F14.0°C 56.4°F13.6°C 97% 0.7 mph N1.1 kmh N 3.8 mph6.1 kmh 29.58 in1001.7 mb 0.00 in0.0 mm 0.00 in/hr0.0 mm/hr 0.00 in0.0 mm
06:55 AM 57.4°F14.1°C 56.5°F13.6°C 97% 0.7 mph NW1.1 kmh NW 3.8 mph6.1 kmh 29.58 in1001.7 mb 0.00 in0.0 mm 0.00 in/hr0.0 mm/hr 0.00 in0.0 mm
07:00 AM 57.7°F14.3°C 56.9°F13.8°C 97% Calm Calm 3.8 mph6.1 kmh 29.58 in1001.7 mb 0.00 in0.0 mm 0.00 in/hr0.0 mm/hr 0.00 in0.0 mm
07:05 AM 57.7°F14.3°C 56.9°F13.8°C 97% Calm Calm 3.1 mph5.0 kmh 29.58 in1001.7 mb 0.00 in0.0 mm 0.00 in/hr0.0 mm/hr 0.00 in0.0 mm
07:10 AM 58.3°F14.6°C 57.4°F14.1°C 97% 1.6 mph NW2.6 kmh NW 3.8 mph6.1 kmh 29.58 in1001.7 mb 0.00 in0.0 mm 0.00 in/hr0.0 mm/hr 0.00 in0.0 mm
07:15 AM 58.5°F14.7°C 57.6°F14.2°C 97% 1.6 mph NNW2.6 kmh NNW 4.5 mph7.2 kmh 29.58 in1001.7 mb 0.00 in0.0 mm 0.00 in/hr0.0 mm/hr 0.00 in0.0 mm
07:20 AM 58.6°F14.8°C 57.8°F14.3°C 97% 0.7 mph N1.1 kmh N 4.5 mph7.2 kmh 29.58 in1001.7 mb 0.00 in0.0 mm 0.00 in/hr0.0 mm/hr 0.00 in0.0 mm
07:25 AM 58.8°F14.9°C 58.0°F14.4°C 97% 1.6 mph N2.6 kmh N 3.8 mph6.1 kmh 29.57 in1001.4 mb 0.00 in0.0 mm 0.00 in/hr0.0 mm/hr 0.00 in0.0 mm
07:30 AM 59.0°F15.0°C 58.2°F14.6°C 97% 0.7 mph NNW1.1 kmh NNW 3.8 mph6.1 kmh 29.57 in1001.4 mb 0.00 in0.0 mm 0.00 in/hr0.0 mm/hr 0.00 in0.0 mm
07:35 AM 59.2°F15.1°C 58.3°F14.6°C 97% 0.7 mph NNW1.1 kmh NNW 3.8 mph6.1 kmh 29.58 in1001.7 mb 0.00 in0.0 mm 0.00 in/hr0.0 mm/hr 0.00 in0.0 mm
07:40 AM 59.4°F15.2°C 58.5°F14.7°C 97% 0.7 mph NNW1.1 kmh NNW 5.4 mph8.7 kmh 29.58 in1001.7 mb 0.00 in0.0 mm 0.00 in/hr0.0 mm/hr 0.00 in0.0 mm
07:45 AM 59.5°F15.3°C 58.7°F14.8°C 97% 0.7 mph NW1.1 kmh NW 5.4 mph8.7 kmh 29.58 in1001.7 mb 0.00 in0.0 mm 0.00 in/hr0.0 mm/hr 0.00 in0.0 mm
07:50 AM 59.7°F15.4°C 58.9°F14.9°C 97% 0.7 mph NW1.1 kmh NW 5.4 mph8.7 kmh 29.58 in1001.7 mb 0.00 in0.0 mm 0.00 in/hr0.0 mm/hr 0.00 in0.0 mm
07:55 AM 60.1°F15.6°C 59.2°F15.1°C 97% 0.7 mph NNW1.1 kmh NNW 3.8 mph6.1 kmh 29.58 in1001.7 mb 0.00 in0.0 mm 0.00 in/hr0.0 mm/hr 0.00 in0.0 mm
08:00 AM 60.3°F15.7°C 59.4°F15.2°C 97% 1.6 mph N2.6 kmh N 4.5 mph7.2 kmh 29.58 in1001.7 mb 0.00 in0.0 mm 0.00 in/hr0.0 mm/hr 0.00 in0.0 mm
08:05 AM 60.3°F15.7°C 59.4°F15.2°C 97% 1.6 mph N2.6 kmh N 4.5 mph7.2 kmh 29.58 in1001.7 mb 0.00 in0.0 mm 0.00 in/hr0.0 mm/hr 0.00 in0.0 mm
08:10 AM 60.4°F15.8°C 59.6°F15.3°C 97% 0.7 mph N1.1 kmh N 3.8 mph6.1 kmh 29.58 in1001.7 mb 0.00 in0.0 mm 0.00 in/hr0.0 mm/hr 0.00 in0.0 mm
08:15 AM 60.8°F16.0°C 60.0°F15.6°C 97% 2.2 mph NNW3.5 kmh NNW 5.4 mph8.7 kmh 29.58 in1001.7 mb 0.00 in0.0 mm 0.00 in/hr0.0 mm/hr 0.00 in0.0 mm
08:20 AM 60.8°F16.0°C 60.0°F15.6°C 97% 1.6 mph NW2.6 kmh NW 5.4 mph8.7 kmh 29.58 in1001.7 mb 0.00 in0.0 mm 0.00 in/hr0.0 mm/hr 0.00 in0.0 mm
08:25 AM 61.2°F16.2°C 60.0°F15.6°C 96% 0.7 mph NNW1.1 kmh NNW 4.5 mph7.2 kmh 29.57 in1001.4 mb 0.00 in0.0 mm 0.00 in/hr0.0 mm/hr 0.00 in0.0 mm
08:30 AM 61.3°F16.3°C 60.5°F15.8°C 97% 1.6 mph N2.6 kmh N 6.9 mph11.1 kmh 29.57 in1001.4 mb 0.00 in0.0 mm 0.00 in/hr0.0 mm/hr 0.00 in0.0 mm
08:35 AM 61.7°F16.5°C 60.6°F15.9°C 96% 2.2 mph N3.5 kmh N 7.6 mph12.2 kmh 29.58 in1001.7 mb 0.00 in0.0 mm 0.00 in/hr0.0 mm/hr 0.00 in0.0 mm
08:40 AM 62.1°F16.7°C 60.9°F16.1°C 96% 3.1 mph N5.0 kmh N 7.6 mph12.2 kmh 29.58 in1001.7 mb 0.00 in0.0 mm 0.00 in/hr0.0 mm/hr 0.00 in0.0 mm
08:45 AM 62.4°F16.9°C 61.0°F16.1°C 95% 2.2 mph NNW3.5 kmh NNW 6.9 mph11.1 kmh 29.58 in1001.7 mb 0.00 in0.0 mm 0.00 in/hr0.0 mm/hr 0.00 in0.0 mm
08:50 AM 62.8°F17.1°C 61.3°F16.3°C 95% 1.6 mph N2.6 kmh N 6.0 mph9.7 kmh 29.58 in1001.7 mb 0.00 in0.0 mm 0.00 in/hr0.0 mm/hr 0.00 in0.0 mm
08:55 AM 63.0°F17.2°C 61.2°F16.2°C 94% 1.6 mph N2.6 kmh N 6.0 mph9.7 kmh 29.58 in1001.7 mb 0.00 in0.0 mm 0.00 in/hr0.0 mm/hr 0.00 in0.0 mm
09:00 AM 63.3°F17.4°C 61.6°F16.4°C 94% 3.1 mph NNW5.0 kmh NNW 6.0 mph9.7 kmh 29.58 in1001.7 mb 0.00 in0.0 mm 0.00 in/hr0.0 mm/hr 0.00 in0.0 mm
09:05 AM 63.3°F17.4°C 61.6°F16.4°C 94% 3.1 mph WNW5.0 kmh WNW 6.0 mph9.7 kmh 29.58 in1001.7 mb 0.00 in0.0 mm 0.00 in/hr0.0 mm/hr 0.00 in0.0 mm
09:10 AM 64.8°F18.2°C 62.4°F16.9°C 92% 2.2 mph W3.5 kmh W 6.9 mph11.1 kmh 29.58 in1001.7 mb 0.00 in0.0 mm 0.00 in/hr0.0 mm/hr 0.00 in0.0 mm
09:15 AM 65.3°F18.5°C 62.6°F17.0°C 91% 3.1 mph WNW5.0 kmh WNW 7.6 mph12.2 kmh 29.57 in1001.4 mb 0.00 in0.0 mm 0.00 in/hr0.0 mm/hr 0.00 in0.0 mm
09:20 AM 65.5°F18.6°C 62.5°F16.9°C 90% 3.8 mph NNW6.1 kmh NNW 7.6 mph12.2 kmh 29.57 in1001.4 mb 0.00 in0.0 mm 0.00 in/hr0.0 mm/hr 0.00 in0.0 mm
09:25 AM 65.8°F18.8°C 62.5°F16.9°C 89% 3.8 mph N6.1 kmh N 7.6 mph12.2 kmh 29.57 in1001.4 mb 0.00 in0.0 mm 0.00 in/hr0.0 mm/hr 0.00 in0.0 mm
09:30 AM 66.0°F18.9°C 62.4°F16.9°C 88% 2.2 mph NNW3.5 kmh NNW 7.6 mph12.2 kmh 29.57 in1001.4 mb 0.00 in0.0 mm 0.00 in/hr0.0 mm/hr 0.00 in0.0 mm
09:35 AM 66.0°F18.9°C 62.1°F16.7°C 87% 0.7 mph N1.1 kmh N 7.6 mph12.2 kmh 29.57 in1001.4 mb 0.00 in0.0 mm 0.00 in/hr0.0 mm/hr 0.00 in0.0 mm
09:40 AM 66.2°F19.0°C 62.2°F16.8°C 87% 2.2 mph N3.5 kmh N 7.6 mph12.2 kmh 29.57 in1001.4 mb 0.00 in0.0 mm 0.00 in/hr0.0 mm/hr 0.00 in0.0 mm
09:45 AM 66.7°F19.3°C 62.8°F17.1°C 87% 1.6 mph N2.6 kmh N 7.6 mph12.2 kmh 29.57 in1001.4 mb 0.00 in0.0 mm 0.00 in/hr0.0 mm/hr 0.00 in0.0 mm
09:50 AM 67.3°F19.6°C 63.0°F17.2°C 86% 1.6 mph N2.6 kmh N 7.6 mph12.2 kmh 29.57 in1001.4 mb 0.00 in0.0 mm 0.00 in/hr0.0 mm/hr 0.00 in0.0 mm
09:55 AM 67.5°F19.7°C 62.8°F17.1°C 85% 3.8 mph NW6.1 kmh NW 7.6 mph12.2 kmh 29.56 in1001.0 mb 0.00 in0.0 mm 0.00 in/hr0.0 mm/hr 0.00 in0.0 mm
10:00 AM 67.6°F19.8°C 62.7°F17.1°C 84% 2.2 mph NW3.5 kmh NW 8.3 mph13.4 kmh 29.56 in1001.0 mb 0.00 in0.0 mm 0.00 in/hr0.0 mm/hr 0.00 in0.0 mm
10:05 AM 67.6°F19.8°C 62.7°F17.1°C 84% 2.2 mph NW3.5 kmh NW 8.3 mph13.4 kmh 29.56 in1001.0 mb 0.00 in0.0 mm 0.00 in/hr0.0 mm/hr 0.00 in0.0 mm
10:10 AM 68.2°F20.1°C 62.8°F17.1°C 83% Calm Calm 6.0 mph9.7 kmh 29.56 in1001.0 mb 0.00 in0.0 mm 0.00 in/hr0.0 mm/hr 0.00 in0.0 mm
10:15 AM 68.5°F20.3°C 62.9°F17.2°C 82% 3.1 mph NNW5.0 kmh NNW 7.6 mph12.2 kmh 29.56 in1001.0 mb 0.00 in0.0 mm 0.00 in/hr0.0 mm/hr 0.00 in0.0 mm
10:20 AM 68.9°F20.5°C 62.9°F17.2°C 81% 3.1 mph NW5.0 kmh NW 9.2 mph14.8 kmh 29.56 in1001.0 mb 0.00 in0.0 mm 0.00 in/hr0.0 mm/hr 0.00 in0.0 mm
10:25 AM 69.3°F20.7°C 62.5°F16.9°C 79% 2.2 mph NW3.5 kmh NW 9.2 mph14.8 kmh 29.56 in1001.0 mb 0.00 in0.0 mm 0.00 in/hr0.0 mm/hr 0.00 in0.0 mm
10:30 AM 69.6°F20.9°C 62.8°F17.1°C 79% 3.8 mph NNE6.1 kmh NNE 9.8 mph15.8 kmh 29.56 in1001.0 mb 0.00 in0.0 mm 0.00 in/hr0.0 mm/hr 0.00 in0.0 mm
10:35 AM 69.6°F20.9°C 62.1°F16.7°C 77% 3.8 mph N6.1 kmh N 12.1 mph19.5 kmh 29.57 in1001.4 mb 0.00 in0.0 mm 0.00 in/hr0.0 mm/hr 0.00 in0.0 mm
10:40 AM 69.4°F20.8°C 61.6°F16.4°C 76% 2.2 mph NNW3.5 kmh NNW 12.1 mph19.5 kmh 29.56 in1001.0 mb 0.00 in0.0 mm 0.00 in/hr0.0 mm/hr 0.00 in0.0 mm
10:45 AM 69.4°F20.8°C 61.6°F16.4°C 76% 3.1 mph NNW5.0 kmh NNW 10.7 mph17.2 kmh 29.56 in1001.0 mb 0.00 in0.0 mm 0.00 in/hr0.0 mm/hr 0.00 in0.0 mm
10:50 AM 69.8°F21.0°C 62.3°F16.8°C 77% 3.1 mph N5.0 kmh N 8.3 mph13.4 kmh 29.56 in1001.0 mb 0.00 in0.0 mm 0.00 in/hr0.0 mm/hr 0.00 in0.0 mm
10:55 AM 70.3°F21.3°C 62.4°F16.9°C 76% 5.4 mph N8.7 kmh N 9.8 mph15.8 kmh 29.55 in1000.7 mb 0.00 in0.0 mm 0.00 in/hr0.0 mm/hr 0.00 in0.0 mm
11:00 AM 70.5°F21.4°C 61.9°F16.6°C 74% 2.2 mph NNW3.5 kmh NNW 9.8 mph15.8 kmh 29.55 in1000.7 mb 0.00 in0.0 mm 0.00 in/hr0.0 mm/hr 0.00 in0.0 mm
11:05 AM 70.5°F21.4°C 61.9°F16.6°C 74% 2.2 mph N3.5 kmh N 9.8 mph15.8 kmh 29.55 in1000.7 mb 0.00 in0.0 mm 0.00 in/hr0.0 mm/hr 0.00 in0.0 mm
11:10 AM 70.9°F21.6°C 62.2°F16.8°C 74% 2.2 mph N3.5 kmh N 8.3 mph13.4 kmh 29.55 in1000.7 mb 0.00 in0.0 mm 0.00 in/hr0.0 mm/hr 0.00 in0.0 mm
11:15 AM 71.2°F21.8°C 62.6°F17.0°C 74% 2.2 mph NNE3.5 kmh NNE 8.3 mph13.4 kmh 29.55 in1000.7 mb 0.00 in0.0 mm 0.00 in/hr0.0 mm/hr 0.00 in0.0 mm
11:20 AM 71.8°F22.1°C 62.7°F17.1°C 73% 2.2 mph N3.5 kmh N 7.6 mph12.2 kmh 29.55 in1000.7 mb 0.00 in0.0 mm 0.00 in/hr0.0 mm/hr 0.00 in0.0 mm
11:25 AM 72.5°F22.5°C 62.6°F17.0°C 71% 3.8 mph NNW6.1 kmh NNW 8.3 mph13.4 kmh 29.55 in1000.7 mb 0.01 in0.3 mm 0.12 in/hr3.0 mm/hr 0.01 in0.3 mm
11:30 AM 72.9°F22.7°C 62.5°F16.9°C 70% 1.6 mph N2.6 kmh N 8.3 mph13.4 kmh 29.55 in1000.7 mb 0.01 in0.3 mm 0.00 in/hr0.0 mm/hr 0.01 in0.3 mm
11:35 AM 73.4°F23.0°C 62.2°F16.8°C 68% 3.1 mph N5.0 kmh N 9.2 mph14.8 kmh 29.54 in1000.3 mb 0.01 in0.3 mm 0.00 in/hr0.0 mm/hr 0.01 in0.3 mm
11:40 AM 73.6°F23.1°C 62.0°F16.7°C 67% 4.5 mph NNW7.2 kmh NNW 10.7 mph17.2 kmh 29.54 in1000.3 mb 0.01 in0.3 mm 0.00 in/hr0.0 mm/hr 0.01 in0.3 mm
11:45 AM 73.9°F23.3°C 62.3°F16.8°C 67% 3.1 mph N5.0 kmh N 11.4 mph18.3 kmh 29.54 in1000.3 mb 0.01 in0.3 mm 0.00 in/hr0.0 mm/hr 0.01 in0.3 mm
11:50 AM 74.3°F23.5°C 62.2°F16.8°C 66% 1.6 mph NNW2.6 kmh NNW 11.4 mph18.3 kmh 29.54 in1000.3 mb 0.01 in0.3 mm 0.00 in/hr0.0 mm/hr 0.01 in0.3 mm
11:55 AM 74.7°F23.7°C 62.1°F16.7°C 65% 5.4 mph NW8.7 kmh NW 9.8 mph15.8 kmh 29.54 in1000.3 mb 0.01 in0.3 mm 0.00 in/hr0.0 mm/hr 0.01 in0.3 mm
12:00 PM 74.8°F23.8°C 61.9°F16.6°C 64% 3.1 mph NW5.0 kmh NW 9.8 mph15.8 kmh 29.53 in1000.0 mb 0.01 in0.3 mm 0.00 in/hr0.0 mm/hr 0.01 in0.3 mm
12:05 PM 74.8°F23.8°C 61.9°F16.6°C 64% 3.1 mph NNW5.0 kmh NNW 9.8 mph15.8 kmh 29.53 in1000.0 mb 0.01 in0.3 mm 0.00 in/hr0.0 mm/hr 0.01 in0.3 mm
12:10 PM 75.4°F24.1°C 61.9°F16.6°C 63% 3.1 mph N5.0 kmh N 7.6 mph12.2 kmh 29.54 in1000.3 mb 0.01 in0.3 mm 0.00 in/hr0.0 mm/hr 0.01 in0.3 mm
12:15 PM 75.4°F24.1°C 61.5°F16.4°C 62% 3.1 mph N5.0 kmh N 9.2 mph14.8 kmh 29.53 in1000.0 mb 0.01 in0.3 mm 0.00 in/hr0.0 mm/hr 0.01 in0.3 mm
12:20 PM 75.6°F24.2°C 61.7°F16.5°C 62% 3.1 mph N5.0 kmh N 9.2 mph14.8 kmh 29.53 in1000.0 mb 0.01 in0.3 mm 0.00 in/hr0.0 mm/hr 0.01 in0.3 mm
12:25 PM 75.6°F24.2°C 60.7°F15.9°C 60% 2.2 mph NNW3.5 kmh NNW 11.4 mph18.3 kmh 29.53 in1000.0 mb 0.00 in0.0 mm 0.00 in/hr0.0 mm/hr 0.01 in0.3 mm
12:30 PM 75.2°F24.0°C 60.9°F16.1°C 61% 1.6 mph NNW2.6 kmh NNW 11.4 mph18.3 kmh 29.53 in1000.0 mb 0.00 in0.0 mm 0.00 in/hr0.0 mm/hr 0.01 in0.3 mm
12:35 PM 75.4°F24.1°C 60.6°F15.9°C 60% 2.2 mph NNE3.5 kmh NNE 8.3 mph13.4 kmh 29.53 in1000.0 mb 0.00 in0.0 mm 0.00 in/hr0.0 mm/hr 0.01 in0.3 mm
12:40 PM 75.6°F24.2°C 60.3°F15.7°C 59% 1.6 mph NE2.6 kmh NE 9.2 mph14.8 kmh 29.53 in1000.0 mb 0.00 in0.0 mm 0.00 in/hr0.0 mm/hr 0.01 in0.3 mm
12:45 PM 75.6°F24.2°C 60.7°F15.9°C 60% 3.1 mph NE5.0 kmh NE 9.2 mph14.8 kmh 29.53 in1000.0 mb 0.00 in0.0 mm 0.00 in/hr0.0 mm/hr 0.01 in0.3 mm
12:50 PM 75.9°F24.4°C 61.1°F16.2°C 60% 2.2 mph NNW3.5 kmh NNW 8.3 mph13.4 kmh 29.52 in999.7 mb 0.00 in0.0 mm 0.00 in/hr0.0 mm/hr 0.01 in0.3 mm
12:55 PM 75.9°F24.4°C 60.6°F15.9°C 59% 2.2 mph N3.5 kmh N 10.7 mph17.2 kmh 29.53 in1000.0 mb 0.00 in0.0 mm 0.00 in/hr0.0 mm/hr 0.01 in0.3 mm
01:00 PM 75.9°F24.4°C 60.6°F15.9°C 59% 3.8 mph NNW6.1 kmh NNW 11.4 mph18.3 kmh 29.52 in999.7 mb 0.00 in0.0 mm 0.00 in/hr0.0 mm/hr 0.01 in0.3 mm
01:05 PM 75.9°F24.4°C 60.6°F15.9°C 59% 3.8 mph NW6.1 kmh NW 11.4 mph18.3 kmh 29.52 in999.7 mb 0.00 in0.0 mm 0.00 in/hr0.0 mm/hr 0.01 in0.3 mm
01:10 PM 75.2°F24.0°C 60.4°F15.8°C 60% 4.5 mph NW7.2 kmh NW 10.7 mph17.2 kmh 29.52 in999.7 mb 0.00 in0.0 mm 0.00 in/hr0.0 mm/hr 0.01 in0.3 mm
01:15 PM 75.0°F23.9°C 60.7°F15.9°C 61% 3.1 mph NNW5.0 kmh NNW 10.7 mph17.2 kmh 29.52 in999.7 mb 0.00 in0.0 mm 0.00 in/hr0.0 mm/hr 0.01 in0.3 mm
01:20 PM 74.8°F23.8°C 61.0°F16.1°C 62% 5.4 mph NNW8.7 kmh NNW 9.8 mph15.8 kmh 29.52 in999.7 mb 0.00 in0.0 mm 0.00 in/hr0.0 mm/hr 0.01 in0.3 mm
01:25 PM 75.0°F23.9°C 61.2°F16.2°C 62% 2.2 mph NE3.5 kmh NE 9.2 mph14.8 kmh 29.53 in1000.0 mb 0.00 in0.0 mm 0.00 in/hr0.0 mm/hr 0.01 in0.3 mm
01:30 PM 75.0°F23.9°C 61.2°F16.2°C 62% 3.8 mph E6.1 kmh E 9.8 mph15.8 kmh 29.53 in1000.0 mb 0.00 in0.0 mm 0.00 in/hr0.0 mm/hr 0.01 in0.3 mm
01:35 PM 74.8°F23.8°C 61.0°F16.1°C 62% 3.8 mph NE6.1 kmh NE 9.8 mph15.8 kmh 29.53 in1000.0 mb 0.00 in0.0 mm 0.00 in/hr0.0 mm/hr 0.01 in0.3 mm
01:40 PM 74.7°F23.7°C 61.3°F16.3°C 63% 3.8 mph NNE6.1 kmh NNE 9.2 mph14.8 kmh 29.53 in1000.0 mb 0.00 in0.0 mm 0.00 in/hr0.0 mm/hr 0.01 in0.3 mm
01:45 PM 74.7°F23.7°C 61.7°F16.5°C 64% 3.8 mph N6.1 kmh N 9.2 mph14.8 kmh 29.53 in1000.0 mb 0.00 in0.0 mm 0.00 in/hr0.0 mm/hr 0.01 in0.3 mm
01:50 PM 75.0°F23.9°C 62.1°F16.7°C 64% 3.1 mph NNW5.0 kmh NNW 7.6 mph12.2 kmh 29.53 in1000.0 mb 0.00 in0.0 mm 0.00 in/hr0.0 mm/hr 0.01 in0.3 mm
01:55 PM 75.0°F23.9°C 62.1°F16.7°C 64% 3.1 mph NW5.0 kmh NW 10.7 mph17.2 kmh 29.53 in1000.0 mb 0.00 in0.0 mm 0.00 in/hr0.0 mm/hr 0.01 in0.3 mm
02:00 PM 74.8°F23.8°C 61.4°F16.3°C 63% 3.8 mph N6.1 kmh N 12.1 mph19.5 kmh 29.53 in1000.0 mb 0.00 in0.0 mm 0.00 in/hr0.0 mm/hr 0.01 in0.3 mm
02:05 PM 74.8°F23.8°C 61.4°F16.3°C 63% 3.8 mph NE6.1 kmh NE 12.1 mph19.5 kmh 29.53 in1000.0 mb 0.00 in0.0 mm 0.00 in/hr0.0 mm/hr 0.01 in0.3 mm
02:10 PM 74.8°F23.8°C 61.9°F16.6°C 64% 3.1 mph NE5.0 kmh NE 9.2 mph14.8 kmh 29.53 in1000.0 mb 0.00 in0.0 mm 0.00 in/hr0.0 mm/hr 0.01 in0.3 mm
02:15 PM 74.8°F23.8°C 62.3°F16.8°C 65% 2.2 mph N3.5 kmh N 9.2 mph14.8 kmh 29.53 in1000.0 mb 0.00 in0.0 mm 0.00 in/hr0.0 mm/hr 0.01 in0.3 mm
02:20 PM 74.7°F23.7°C 61.7°F16.5°C 64% 3.8 mph NW6.1 kmh NW 10.7 mph17.2 kmh 29.53 in1000.0 mb 0.00 in0.0 mm 0.00 in/hr0.0 mm/hr 0.01 in0.3 mm
02:25 PM 74.7°F23.7°C 62.1°F16.7°C 65% 3.1 mph NNW5.0 kmh NNW 10.7 mph17.2 kmh 29.53 in1000.0 mb 0.00 in0.0 mm 0.00 in/hr0.0 mm/hr 0.01 in0.3 mm
02:30 PM 74.7°F23.7°C 62.6°F17.0°C 66% 3.1 mph NNW5.0 kmh NNW 9.2 mph14.8 kmh 29.53 in1000.0 mb 0.00 in0.0 mm 0.00 in/hr0.0 mm/hr 0.01 in0.3 mm
02:35 PM 75.0°F23.9°C 62.9°F17.2°C 66% 1.6 mph NNW2.6 kmh NNW 9.8 mph15.8 kmh 29.53 in1000.0 mb 0.00 in0.0 mm 0.00 in/hr0.0 mm/hr 0.01 in0.3 mm
02:40 PM 75.2°F24.0°C 63.1°F17.3°C 66% 3.8 mph N6.1 kmh N 9.8 mph15.8 kmh 29.53 in1000.0 mb 0.00 in0.0 mm 0.00 in/hr0.0 mm/hr 0.01 in0.3 mm
02:45 PM 75.2°F24.0°C 63.1°F17.3°C 66% 3.1 mph N5.0 kmh N 9.2 mph14.8 kmh 29.53 in1000.0 mb 0.00 in0.0 mm 0.00 in/hr0.0 mm/hr 0.01 in0.3 mm
02:50 PM 75.2°F24.0°C 62.7°F17.1°C 65% 4.5 mph NW7.2 kmh NW 11.4 mph18.3 kmh 29.53 in1000.0 mb 0.00 in0.0 mm 0.00 in/hr0.0 mm/hr 0.01 in0.3 mm
02:55 PM 75.0°F23.9°C 62.5°F16.9°C 65% 3.8 mph NNW6.1 kmh NNW 13.0 mph20.9 kmh 29.53 in1000.0 mb 0.00 in0.0 mm 0.00 in/hr0.0 mm/hr 0.01 in0.3 mm
03:00 PM 75.0°F23.9°C 62.9°F17.2°C 66% 3.8 mph NNW6.1 kmh NNW 13.0 mph20.9 kmh 29.53 in1000.0 mb 0.00 in0.0 mm 0.00 in/hr0.0 mm/hr 0.01 in0.3 mm
03:05 PM 75.0°F23.9°C 62.9°F17.2°C 66% 3.8 mph NNE6.1 kmh NNE 7.6 mph12.2 kmh 29.53 in1000.0 mb 0.00 in0.0 mm 0.00 in/hr0.0 mm/hr 0.01 in0.3 mm
03:10 PM 75.2°F24.0°C 63.1°F17.3°C 66% 1.6 mph NE2.6 kmh NE 6.9 mph11.1 kmh 29.53 in1000.0 mb 0.00 in0.0 mm 0.00 in/hr0.0 mm/hr 0.01 in0.3 mm
03:15 PM 75.2°F24.0°C 63.5°F17.5°C 67% 2.2 mph N3.5 kmh N 6.9 mph11.1 kmh 29.53 in1000.0 mb 0.00 in0.0 mm 0.00 in/hr0.0 mm/hr 0.01 in0.3 mm
03:20 PM 75.2°F24.0°C 63.5°F17.5°C 67% 1.6 mph NW2.6 kmh NW 7.6 mph12.2 kmh 29.53 in1000.0 mb 0.00 in0.0 mm 0.00 in/hr0.0 mm/hr 0.01 in0.3 mm
03:25 PM 75.4°F24.1°C 63.3°F17.4°C 66% 4.5 mph N7.2 kmh N 8.3 mph13.4 kmh 29.53 in1000.0 mb 0.00 in0.0 mm 0.00 in/hr0.0 mm/hr 0.01 in0.3 mm
03:30 PM 75.6°F24.2°C 63.4°F17.4°C 66% 3.1 mph N5.0 kmh N 9.8 mph15.8 kmh 29.53 in1000.0 mb 0.00 in0.0 mm 0.00 in/hr0.0 mm/hr 0.01 in0.3 mm
03:35 PM 75.7°F24.3°C 63.6°F17.6°C 66% 2.2 mph N3.5 kmh N 9.8 mph15.8 kmh 29.54 in1000.3 mb 0.00 in0.0 mm 0.00 in/hr0.0 mm/hr 0.01 in0.3 mm
03:40 PM 75.9°F24.4°C 63.8°F17.7°C 66% 2.2 mph N3.5 kmh N 8.3 mph13.4 kmh 29.54 in1000.3 mb 0.00 in0.0 mm 0.00 in/hr0.0 mm/hr 0.01 in0.3 mm
03:45 PM 75.7°F24.3°C 63.2°F17.3°C 65% 3.8 mph NNE6.1 kmh NNE 8.3 mph13.4 kmh 29.53 in1000.0 mb 0.00 in0.0 mm 0.00 in/hr0.0 mm/hr 0.01 in0.3 mm
03:50 PM 75.7°F24.3°C 63.2°F17.3°C 65% 2.2 mph NNW3.5 kmh NNW 8.3 mph13.4 kmh 29.54 in1000.3 mb 0.00 in0.0 mm 0.00 in/hr0.0 mm/hr 0.01 in0.3 mm
03:55 PM 75.6°F24.2°C 63.0°F17.2°C 65% 3.8 mph NNW6.1 kmh NNW 8.3 mph13.4 kmh 29.54 in1000.3 mb 0.00 in0.0 mm 0.00 in/hr0.0 mm/hr 0.01 in0.3 mm
04:00 PM 75.2°F24.0°C 63.1°F17.3°C 66% 4.5 mph N7.2 kmh N 9.2 mph14.8 kmh 29.53 in1000.0 mb 0.00 in0.0 mm 0.00 in/hr0.0 mm/hr 0.01 in0.3 mm
04:05 PM 75.2°F24.0°C 63.1°F17.3°C 66% 4.5 mph N7.2 kmh N 9.2 mph14.8 kmh 29.54 in1000.3 mb 0.00 in0.0 mm 0.00 in/hr0.0 mm/hr 0.01 in0.3 mm
04:10 PM 75.0°F23.9°C 62.9°F17.2°C 66% 2.2 mph N3.5 kmh N 6.9 mph11.1 kmh 29.54 in1000.3 mb 0.00 in0.0 mm 0.00 in/hr0.0 mm/hr 0.01 in0.3 mm
04:15 PM 75.0°F23.9°C 62.9°F17.2°C 66% 2.2 mph NNW3.5 kmh NNW 6.9 mph11.1 kmh 29.54 in1000.3 mb 0.00 in0.0 mm 0.00 in/hr0.0 mm/hr 0.01 in0.3 mm
04:20 PM 74.8°F23.8°C 62.8°F17.1°C 66% 2.2 mph NNW3.5 kmh NNW 8.3 mph13.4 kmh 29.53 in1000.0 mb 0.00 in0.0 mm 0.00 in/hr0.0 mm/hr 0.01 in0.3 mm
04:25 PM 74.8°F23.8°C 62.8°F17.1°C 66% 2.2 mph N3.5 kmh N 8.3 mph13.4 kmh 29.54 in1000.3 mb 0.00 in0.0 mm 0.00 in/hr0.0 mm/hr 0.01 in0.3 mm
04:30 PM 74.8°F23.8°C 63.2°F17.3°C 67% 3.1 mph NW5.0 kmh NW 6.9 mph11.1 kmh 29.54 in1000.3 mb 0.00 in0.0 mm 0.00 in/hr0.0 mm/hr 0.01 in0.3 mm
04:35 PM 74.8°F23.8°C 62.8°F17.1°C 66% 2.2 mph NW3.5 kmh NW 6.0 mph9.7 kmh 29.54 in1000.3 mb 0.00 in0.0 mm 0.00 in/hr0.0 mm/hr 0.01 in0.3 mm
04:40 PM 74.8°F23.8°C 62.8°F17.1°C 66% 2.2 mph NNW3.5 kmh NNW 6.0 mph9.7 kmh 29.54 in1000.3 mb 0.00 in0.0 mm 0.00 in/hr0.0 mm/hr 0.01 in0.3 mm
04:45 PM 74.7°F23.7°C 62.6°F17.0°C 66% 2.2 mph NNW3.5 kmh NNW 6.0 mph9.7 kmh 29.54 in1000.3 mb 0.00 in0.0 mm 0.00 in/hr0.0 mm/hr 0.01 in0.3 mm
04:50 PM 74.7°F23.7°C 62.6°F17.0°C 66% 3.1 mph NW5.0 kmh NW 6.0 mph9.7 kmh 29.54 in1000.3 mb 0.00 in0.0 mm 0.00 in/hr0.0 mm/hr 0.01 in0.3 mm
04:55 PM 74.5°F23.6°C 62.4°F16.9°C 66% 3.1 mph NW5.0 kmh NW 9.8 mph15.8 kmh 29.54 in1000.3 mb 0.00 in0.0 mm 0.00 in/hr0.0 mm/hr 0.01 in0.3 mm
05:00 PM 74.3°F23.5°C 62.2°F16.8°C 66% 0.7 mph NNW1.1 kmh NNW 9.8 mph15.8 kmh 29.54 in1000.3 mb 0.00 in0.0 mm 0.00 in/hr0.0 mm/hr 0.01 in0.3 mm
05:05 PM 74.3°F23.5°C 62.2°F16.8°C 66% 0.7 mph N1.1 kmh N 9.8 mph15.8 kmh 29.54 in1000.3 mb 0.00 in0.0 mm 0.00 in/hr0.0 mm/hr 0.01 in0.3 mm
05:10 PM 74.1°F23.4°C 62.1°F16.7°C 66% 2.2 mph NNW3.5 kmh NNW 8.3 mph13.4 kmh 29.54 in1000.3 mb 0.00 in0.0 mm 0.00 in/hr0.0 mm/hr 0.01 in0.3 mm
05:15 PM 73.9°F23.3°C 61.9°F16.6°C 66% 1.6 mph NW2.6 kmh NW 8.3 mph13.4 kmh 29.54 in1000.3 mb 0.00 in0.0 mm 0.00 in/hr0.0 mm/hr 0.01 in0.3 mm
05:20 PM 73.8°F23.2°C 62.2°F16.8°C 67% 2.2 mph NNW3.5 kmh NNW 6.9 mph11.1 kmh 29.54 in1000.3 mb 0.00 in0.0 mm 0.00 in/hr0.0 mm/hr 0.01 in0.3 mm
05:25 PM 73.6°F23.1°C 62.0°F16.7°C 67% 2.2 mph N3.5 kmh N 7.6 mph12.2 kmh 29.54 in1000.3 mb 0.00 in0.0 mm 0.00 in/hr0.0 mm/hr 0.01 in0.3 mm
05:30 PM 73.6°F23.1°C 62.4°F16.9°C 68% Calm Calm 7.6 mph12.2 kmh 29.54 in1000.3 mb 0.00 in0.0 mm 0.00 in/hr0.0 mm/hr 0.01 in0.3 mm
05:35 PM 73.4°F23.0°C 62.2°F16.8°C 68% 1.6 mph WNW2.6 kmh WNW 6.0 mph9.7 kmh 29.54 in1000.3 mb 0.00 in0.0 mm 0.00 in/hr0.0 mm/hr 0.01 in0.3 mm
05:40 PM 73.4°F23.0°C 62.2°F16.8°C 68% 2.2 mph NW3.5 kmh NW 6.9 mph11.1 kmh 29.54 in1000.3 mb 0.00 in0.0 mm 0.00 in/hr0.0 mm/hr 0.01 in0.3 mm
05:45 PM 73.4°F23.0°C 61.8°F16.6°C 67% 0.7 mph NW1.1 kmh NW 9.8 mph15.8 kmh 29.54 in1000.3 mb 0.00 in0.0 mm 0.00 in/hr0.0 mm/hr 0.01 in0.3 mm
05:50 PM 73.4°F23.0°C 62.2°F16.8°C 68% 2.2 mph NW3.5 kmh NW 9.8 mph15.8 kmh 29.54 in1000.3 mb 0.00 in0.0 mm 0.00 in/hr0.0 mm/hr 0.01 in0.3 mm
05:55 PM 73.2°F22.9°C 62.1°F16.7°C 68% 0.7 mph NW1.1 kmh NW 6.9 mph11.1 kmh 29.54 in1000.3 mb 0.00 in0.0 mm 0.00 in/hr0.0 mm/hr 0.01 in0.3 mm
06:00 PM 73.0°F22.8°C 61.9°F16.6°C 68% 0.7 mph N1.1 kmh N 6.9 mph11.1 kmh 29.54 in1000.3 mb 0.00 in0.0 mm 0.00 in/hr0.0 mm/hr 0.01 in0.3 mm
06:05 PM 73.0°F22.8°C 61.9°F16.6°C 68% 0.7 mph N1.1 kmh N 4.5 mph7.2 kmh 29.54 in1000.3 mb 0.00 in0.0 mm 0.00 in/hr0.0 mm/hr 0.01 in0.3 mm
06:10 PM 72.5°F22.5°C 61.8°F16.6°C 69% 0.7 mph N1.1 kmh N 4.5 mph7.2 kmh 29.54 in1000.3 mb 0.00 in0.0 mm 0.00 in/hr0.0 mm/hr 0.01 in0.3 mm
06:15 PM 72.3°F22.4°C 61.6°F16.4°C 69% 1.6 mph NNW2.6 kmh NNW 5.4 mph8.7 kmh 29.54 in1000.3 mb 0.00 in0.0 mm 0.00 in/hr0.0 mm/hr 0.01 in0.3 mm
06:20 PM 72.0°F22.2°C 61.3°F16.3°C 69% 0.7 mph NNW1.1 kmh NNW 5.4 mph8.7 kmh 29.54 in1000.3 mb 0.00 in0.0 mm 0.00 in/hr0.0 mm/hr 0.01 in0.3 mm
06:25 PM 71.6°F22.0°C 60.5°F15.8°C 68% 2.2 mph NW3.5 kmh NW 6.0 mph9.7 kmh 29.54 in1000.3 mb 0.00 in0.0 mm 0.00 in/hr0.0 mm/hr 0.01 in0.3 mm
06:30 PM 71.1°F21.7°C 60.4°F15.8°C 69% 0.7 mph WNW1.1 kmh WNW 6.0 mph9.7 kmh 29.54 in1000.3 mb 0.00 in0.0 mm 0.00 in/hr0.0 mm/hr 0.01 in0.3 mm
06:35 PM 70.7°F21.5°C 60.1°F15.6°C 69% 0.7 mph W1.1 kmh W 5.4 mph8.7 kmh 29.54 in1000.3 mb 0.00 in0.0 mm 0.00 in/hr0.0 mm/hr 0.01 in0.3 mm
06:40 PM 70.5°F21.4°C 60.3°F15.7°C 70% 2.2 mph W3.5 kmh W 6.9 mph11.1 kmh 29.55 in1000.7 mb 0.00 in0.0 mm 0.00 in/hr0.0 mm/hr 0.01 in0.3 mm
06:45 PM 70.2°F21.2°C 59.9°F15.5°C 70% 0.7 mph W1.1 kmh W 6.9 mph11.1 kmh 29.54 in1000.3 mb 0.00 in0.0 mm 0.00 in/hr0.0 mm/hr 0.01 in0.3 mm
06:50 PM 70.0°F21.1°C 59.8°F15.4°C 70% 0.7 mph WNW1.1 kmh WNW 6.9 mph11.1 kmh 29.54 in1000.3 mb 0.00 in0.0 mm 0.00 in/hr0.0 mm/hr 0.01 in0.3 mm
06:55 PM 69.8°F21.0°C 60.0°F15.6°C 71% 1.6 mph NW2.6 kmh NW 7.6 mph12.2 kmh 29.55 in1000.7 mb 0.00 in0.0 mm 0.00 in/hr0.0 mm/hr 0.01 in0.3 mm
07:00 PM 69.4°F20.8°C 59.7°F15.4°C 71% 1.6 mph NNW2.6 kmh NNW 7.6 mph12.2 kmh 29.54 in1000.3 mb 0.00 in0.0 mm 0.00 in/hr0.0 mm/hr 0.01 in0.3 mm
07:05 PM 69.4°F20.8°C 59.7°F15.4°C 71% 1.6 mph NNE2.6 kmh NNE 6.9 mph11.1 kmh 29.54 in1000.3 mb 0.00 in0.0 mm 0.00 in/hr0.0 mm/hr 0.01 in0.3 mm
07:10 PM 69.3°F20.7°C 59.5°F15.3°C 71% 0.7 mph NNE1.1 kmh NNE 6.0 mph9.7 kmh 29.55 in1000.7 mb 0.00 in0.0 mm 0.00 in/hr0.0 mm/hr 0.01 in0.3 mm
07:15 PM 69.1°F20.6°C 59.3°F15.2°C 71% 3.1 mph NNE5.0 kmh NNE 7.6 mph12.2 kmh 29.55 in1000.7 mb 0.00 in0.0 mm 0.00 in/hr0.0 mm/hr 0.01 in0.3 mm
07:20 PM 69.1°F20.6°C 59.7°F15.4°C 72% 0.7 mph NNW1.1 kmh NNW 7.6 mph12.2 kmh 29.55 in1000.7 mb 0.00 in0.0 mm 0.00 in/hr0.0 mm/hr 0.01 in0.3 mm
07:25 PM 68.7°F20.4°C 59.4°F15.2°C 72% 2.2 mph NW3.5 kmh NW 7.6 mph12.2 kmh 29.55 in1000.7 mb 0.00 in0.0 mm 0.00 in/hr0.0 mm/hr 0.01 in0.3 mm
07:30 PM 68.5°F20.3°C 59.2°F15.1°C 72% 0.7 mph NW1.1 kmh NW 7.6 mph12.2 kmh 29.55 in1000.7 mb 0.00 in0.0 mm 0.00 in/hr0.0 mm/hr 0.01 in0.3 mm
07:35 PM 68.4°F20.2°C 59.0°F15.0°C 72% 1.6 mph NW2.6 kmh NW 5.4 mph8.7 kmh 29.55 in1000.7 mb 0.00 in0.0 mm 0.00 in/hr0.0 mm/hr 0.01 in0.3 mm
07:40 PM 68.0°F20.0°C 58.7°F14.8°C 72% 1.6 mph NNW2.6 kmh NNW 5.4 mph8.7 kmh 29.55 in1000.7 mb 0.00 in0.0 mm 0.00 in/hr0.0 mm/hr 0.01 in0.3 mm
07:45 PM 67.8°F19.9°C 58.9°F14.9°C 73% 0.7 mph NW1.1 kmh NW 5.4 mph8.7 kmh 29.55 in1000.7 mb 0.00 in0.0 mm 0.00 in/hr0.0 mm/hr 0.01 in0.3 mm
07:50 PM 67.6°F19.8°C 58.7°F14.8°C 73% 1.6 mph NW2.6 kmh NW 5.4 mph8.7 kmh 29.55 in1000.7 mb 0.00 in0.0 mm 0.00 in/hr0.0 mm/hr 0.01 in0.3 mm
07:55 PM 67.3°F19.6°C 58.4°F14.7°C 73% 0.7 mph NW1.1 kmh NW 5.4 mph8.7 kmh 29.55 in1000.7 mb 0.00 in0.0 mm 0.00 in/hr0.0 mm/hr 0.01 in0.3 mm
08:00 PM 67.1°F19.5°C 58.6°F14.8°C 74% 1.6 mph NW2.6 kmh NW 5.4 mph8.7 kmh 29.55 in1000.7 mb 0.00 in0.0 mm 0.00 in/hr0.0 mm/hr 0.01 in0.3 mm
08:05 PM 67.1°F19.5°C 58.6°F14.8°C 74% 1.6 mph NNW2.6 kmh NNW 5.4 mph8.7 kmh 29.56 in1001.0 mb 0.00 in0.0 mm 0.00 in/hr0.0 mm/hr 0.01 in0.3 mm
08:10 PM 66.4°F19.1°C 57.9°F14.4°C 74% 1.6 mph N2.6 kmh N 3.1 mph5.0 kmh 29.56 in1001.0 mb 0.00 in0.0 mm 0.00 in/hr0.0 mm/hr 0.01 in0.3 mm
08:15 PM 66.2°F19.0°C 57.7°F14.3°C 74% 0.7 mph NW1.1 kmh NW 4.5 mph7.2 kmh 29.56 in1001.0 mb 0.00 in0.0 mm 0.00 in/hr0.0 mm/hr 0.01 in0.3 mm
08:20 PM 66.0°F18.9°C 57.9°F14.4°C 75% 0.7 mph WNW1.1 kmh WNW 4.5 mph7.2 kmh 29.56 in1001.0 mb 0.00 in0.0 mm 0.00 in/hr0.0 mm/hr 0.01 in0.3 mm
08:25 PM 65.8°F18.8°C 57.7°F14.3°C 75% 0.7 mph NW1.1 kmh NW 4.5 mph7.2 kmh 29.56 in1001.0 mb 0.00 in0.0 mm 0.00 in/hr0.0 mm/hr 0.01 in0.3 mm
08:30 PM 65.7°F18.7°C 57.5°F14.2°C 75% 0.7 mph NW1.1 kmh NW 5.4 mph8.7 kmh 29.57 in1001.4 mb 0.00 in0.0 mm 0.00 in/hr0.0 mm/hr 0.01 in0.3 mm
08:35 PM 65.3°F18.5°C 57.6°F14.2°C 76% 0.7 mph W1.1 kmh W 5.4 mph8.7 kmh 29.57 in1001.4 mb 0.00 in0.0 mm 0.00 in/hr0.0 mm/hr 0.01 in0.3 mm
08:40 PM 65.1°F18.4°C 57.4°F14.1°C 76% 0.7 mph NW1.1 kmh NW 3.1 mph5.0 kmh 29.57 in1001.4 mb 0.00 in0.0 mm 0.00 in/hr0.0 mm/hr 0.01 in0.3 mm
08:45 PM 64.9°F18.3°C 57.6°F14.2°C 77% 0.7 mph WNW1.1 kmh WNW 3.8 mph6.1 kmh 29.57 in1001.4 mb 0.00 in0.0 mm 0.00 in/hr0.0 mm/hr 0.01 in0.3 mm
08:50 PM 64.8°F18.2°C 57.4°F14.1°C 77% 0.7 mph W1.1 kmh W 3.8 mph6.1 kmh 29.57 in1001.4 mb 0.00 in0.0 mm 0.00 in/hr0.0 mm/hr 0.01 in0.3 mm
08:55 PM 64.8°F18.2°C 57.4°F14.1°C 77% Calm Calm 2.2 mph3.5 kmh 29.57 in1001.4 mb 0.00 in0.0 mm 0.00 in/hr0.0 mm/hr 0.01 in0.3 mm
09:00 PM 64.4°F18.0°C 57.4°F14.1°C 78% 0.7 mph W1.1 kmh W 3.8 mph6.1 kmh 29.58 in1001.7 mb 0.00 in0.0 mm 0.00 in/hr0.0 mm/hr 0.01 in0.3 mm
09:05 PM 64.4°F18.0°C 57.4°F14.1°C 78% 0.7 mph SSW1.1 kmh SSW 3.8 mph6.1 kmh 29.58 in1001.7 mb 0.00 in0.0 mm 0.00 in/hr0.0 mm/hr 0.01 in0.3 mm
09:10 PM 64.0°F17.8°C 57.1°F13.9°C 78% 0.7 mph SSW1.1 kmh SSW 3.1 mph5.0 kmh 29.57 in1001.4 mb 0.00 in0.0 mm 0.00 in/hr0.0 mm/hr 0.01 in0.3 mm
09:15 PM 63.7°F17.6°C 57.1°F13.9°C 79% 1.6 mph WSW2.6 kmh WSW 3.1 mph5.0 kmh 29.58 in1001.7 mb 0.00 in0.0 mm 0.00 in/hr0.0 mm/hr 0.01 in0.3 mm
09:20 PM 63.5°F17.5°C 56.9°F13.8°C 79% 0.7 mph W1.1 kmh W 3.1 mph5.0 kmh 29.58 in1001.7 mb 0.00 in0.0 mm 0.00 in/hr0.0 mm/hr 0.01 in0.3 mm
09:25 PM 63.3°F17.4°C 56.7°F13.7°C 79% Calm Calm 3.1 mph5.0 kmh 29.58 in1001.7 mb 0.00 in0.0 mm 0.00 in/hr0.0 mm/hr 0.01 in0.3 mm
09:30 PM 63.1°F17.3°C 56.5°F13.6°C 79% 0.7 mph WNW1.1 kmh WNW 3.1 mph5.0 kmh 29.58 in1001.7 mb 0.00 in0.0 mm 0.00 in/hr0.0 mm/hr 0.01 in0.3 mm
09:35 PM 63.0°F17.2°C 56.7°F13.7°C 80% Calm Calm 3.1 mph5.0 kmh 29.58 in1001.7 mb 0.00 in0.0 mm 0.00 in/hr0.0 mm/hr 0.01 in0.3 mm
09:40 PM 63.0°F17.2°C 56.7°F13.7°C 80% Calm Calm 2.2 mph3.5 kmh 29.58 in1001.7 mb 0.00 in0.0 mm 0.00 in/hr0.0 mm/hr 0.01 in0.3 mm
09:45 PM 62.6°F17.0°C 56.7°F13.7°C 81% Calm Calm 2.2 mph3.5 kmh 29.58 in1001.7 mb 0.00 in0.0 mm 0.00 in/hr0.0 mm/hr 0.01 in0.3 mm
09:50 PM 62.4°F16.9°C 56.5°F13.6°C 81% Calm Calm 1.6 mph2.6 kmh 29.58 in1001.7 mb 0.00 in0.0 mm 0.00 in/hr0.0 mm/hr 0.01 in0.3 mm
09:55 PM 62.1°F16.7°C 56.2°F13.4°C 81% Calm Calm 2.2 mph3.5 kmh 29.58 in1001.7 mb 0.00 in0.0 mm 0.00 in/hr0.0 mm/hr 0.01 in0.3 mm
10:00 PM 61.7°F16.5°C 56.2°F13.4°C 82% Calm Calm 2.2 mph3.5 kmh 29.58 in1001.7 mb 0.00 in0.0 mm 0.00 in/hr0.0 mm/hr 0.01 in0.3 mm
10:05 PM 61.7°F16.5°C 56.2°F13.4°C 82% Calm Calm 2.2 mph3.5 kmh 29.58 in1001.7 mb 0.00 in0.0 mm 0.00 in/hr0.0 mm/hr 0.01 in0.3 mm
10:10 PM 61.3°F16.3°C 56.1°F13.4°C 83% 0.7 mph NE1.1 kmh NE 2.2 mph3.5 kmh 29.58 in1001.7 mb 0.00 in0.0 mm 0.00 in/hr0.0 mm/hr 0.01 in0.3 mm
10:15 PM 61.2°F16.2°C 56.0°F13.3°C 83% Calm Calm 2.2 mph3.5 kmh 29.58 in1001.7 mb 0.00 in0.0 mm 0.00 in/hr0.0 mm/hr 0.01 in0.3 mm
10:20 PM 61.0°F16.1°C 55.8°F13.2°C 83% Calm Calm 2.2 mph3.5 kmh 29.58 in1001.7 mb 0.00 in0.0 mm 0.00 in/hr0.0 mm/hr 0.01 in0.3 mm
10:25 PM 60.8°F16.0°C 55.9°F13.3°C 84% 0.7 mph W1.1 kmh W 2.2 mph3.5 kmh 29.58 in1001.7 mb 0.00 in0.0 mm 0.00 in/hr0.0 mm/hr 0.01 in0.3 mm
10:30 PM 60.6°F15.9°C 55.8°F13.2°C 84% 0.7 mph NW1.1 kmh NW 2.2 mph3.5 kmh 29.58 in1001.7 mb 0.00 in0.0 mm 0.00 in/hr0.0 mm/hr 0.01 in0.3 mm
10:35 PM 60.4°F15.8°C 55.9°F13.3°C 85% Calm Calm 2.2 mph3.5 kmh 29.58 in1001.7 mb 0.00 in0.0 mm 0.00 in/hr0.0 mm/hr 0.01 in0.3 mm
10:40 PM 60.4°F15.8°C 55.9°F13.3°C 85% Calm Calm 1.6 mph2.6 kmh 29.58 in1001.7 mb 0.00 in0.0 mm 0.00 in/hr0.0 mm/hr 0.01 in0.3 mm
10:45 PM 60.3°F15.7°C 55.7°F13.2°C 85% Calm Calm 1.6 mph2.6 kmh 29.58 in1001.7 mb 0.00 in0.0 mm 0.00 in/hr0.0 mm/hr 0.01 in0.3 mm
10:50 PM 60.3°F15.7°C 55.7°F13.2°C 85% 0.7 mph WNW1.1 kmh WNW 2.2 mph3.5 kmh 29.58 in1001.7 mb 0.00 in0.0 mm 0.00 in/hr0.0 mm/hr 0.01 in0.3 mm
10:55 PM 60.1°F15.6°C 55.9°F13.3°C 86% Calm Calm 2.2 mph3.5 kmh 29.59 in1002.0 mb 0.00 in0.0 mm 0.00 in/hr0.0 mm/hr 0.01 in0.3 mm
11:00 PM 59.9°F15.5°C 55.7°F13.2°C 86% Calm Calm 2.2 mph3.5 kmh 29.58 in1001.7 mb 0.00 in0.0 mm 0.00 in/hr0.0 mm/hr 0.01 in0.3 mm
11:05 PM 59.9°F15.5°C 55.7°F13.2°C 86% Calm Calm 2.2 mph3.5 kmh 29.58 in1001.7 mb 0.00 in0.0 mm 0.00 in/hr0.0 mm/hr 0.01 in0.3 mm
11:10 PM 59.7°F15.4°C 55.9°F13.3°C 87% Calm Calm 1.6 mph2.6 kmh 29.58 in1001.7 mb 0.00 in0.0 mm 0.00 in/hr0.0 mm/hr 0.01 in0.3 mm
11:15 PM 59.7°F15.4°C 55.9°F13.3°C 87% Calm Calm 2.2 mph3.5 kmh 29.58 in1001.7 mb 0.00 in0.0 mm 0.00 in/hr0.0 mm/hr 0.01 in0.3 mm
11:20 PM 59.5°F15.3°C 55.7°F13.2°C 87% Calm Calm 2.2 mph3.5 kmh 29.59 in1002.0 mb 0.00 in0.0 mm 0.00 in/hr0.0 mm/hr 0.01 in0.3 mm
11:25 PM 59.5°F15.3°C 55.7°F13.2°C 87% Calm Calm 0.7 mph1.1 kmh 29.59 in1002.0 mb 0.00 in0.0 mm 0.00 in/hr0.0 mm/hr 0.01 in0.3 mm
11:30 PM 59.4°F15.2°C 55.8°F13.2°C 88% Calm Calm 1.6 mph2.6 kmh 29.59 in1002.0 mb 0.00 in0.0 mm 0.00 in/hr0.0 mm/hr 0.01 in0.3 mm
11:35 PM 59.4°F15.2°C 55.8°F13.2°C 88% Calm Calm 1.6 mph2.6 kmh 29.58 in1001.7 mb 0.00 in0.0 mm 0.00 in/hr0.0 mm/hr 0.01 in0.3 mm
11:40 PM 59.4°F15.2°C 55.8°F13.2°C 88% Calm Calm 1.6 mph2.6 kmh 29.59 in1002.0 mb 0.00 in0.0 mm 0.00 in/hr0.0 mm/hr 0.01 in0.3 mm
11:45 PM 59.4°F15.2°C 55.8°F13.2°C 88% Calm Calm 1.6 mph2.6 kmh 29.59 in1002.0 mb 0.00 in0.0 mm 0.00 in/hr0.0 mm/hr 0.01 in0.3 mm
11:50 PM 59.2°F15.1°C 56.0°F13.3°C 89% Calm Calm 1.6 mph2.6 kmh 29.59 in1002.0 mb 0.00 in0.0 mm 0.00 in/hr0.0 mm/hr 0.01 in0.3 mm
11:55 PM 59.2°F15.1°C 56.0°F13.3°C 89% Calm Calm 1.6 mph2.6 kmh 29.59 in1002.0 mb 0.00 in0.0 mm 0.00 in/hr0.0 mm/hr 0.01 in0.3 mm